sensor_id;sensor_type;location;lat;lon;timestamp;P1;durP1;ratioP1;P2;durP2;ratioP2
10092;SDS011;5085;48.092;11.484;2023-02-15T00:01:40;10.93;;;6.53;;
10092;SDS011;5085;48.092;11.484;2023-02-15T00:04:07;13.27;;;7.38;;
10092;SDS011;5085;48.092;11.484;2023-02-15T00:06:33;15.48;;;7.47;;
10092;SDS011;5085;48.092;11.484;2023-02-15T00:08:59;15.40;;;6.72;;
10092;SDS011;5085;48.092;11.484;2023-02-15T00:11:26;13.32;;;7.40;;
10092;SDS011;5085;48.092;11.484;2023-02-15T00:14:16;11.65;;;6.43;;
10092;SDS011;5085;48.092;11.484;2023-02-15T00:16:45;15.25;;;7.30;;
10092;SDS011;5085;48.092;11.484;2023-02-15T00:19:12;11.68;;;6.47;;
10092;SDS011;5085;48.092;11.484;2023-02-15T00:21:40;13.82;;;7.07;;
10092;SDS011;5085;48.092;11.484;2023-02-15T00:24:07;32.45;;;7.30;;
10092;SDS011;5085;48.092;11.484;2023-02-15T00:26:34;14.52;;;7.05;;
10092;SDS011;5085;48.092;11.484;2023-02-15T00:29:01;14.05;;;6.63;;
10092;SDS011;5085;48.092;11.484;2023-02-15T00:31:28;15.35;;;6.75;;
10092;SDS011;5085;48.092;11.484;2023-02-15T00:34:00;12.45;;;6.07;;
10092;SDS011;5085;48.092;11.484;2023-02-15T00:36:27;15.43;;;7.45;;
10092;SDS011;5085;48.092;11.484;2023-02-15T00:38:53;14.98;;;6.38;;
10092;SDS011;5085;48.092;11.484;2023-02-15T00:41:19;15.02;;;6.80;;
10092;SDS011;5085;48.092;11.484;2023-02-15T00:43:45;10.13;;;6.03;;
10092;SDS011;5085;48.092;11.484;2023-02-15T00:46:11;23.13;;;6.57;;
10092;SDS011;5085;48.092;11.484;2023-02-15T00:48:38;15.05;;;6.93;;
10092;SDS011;5085;48.092;11.484;2023-02-15T00:51:05;15.57;;;7.07;;
10092;SDS011;5085;48.092;11.484;2023-02-15T00:53:31;11.27;;;6.82;;
10092;SDS011;5085;48.092;11.484;2023-02-15T00:55:57;15.25;;;5.65;;
10092;SDS011;5085;48.092;11.484;2023-02-15T00:58:24;21.17;;;6.13;;
10092;SDS011;5085;48.092;11.484;2023-02-15T01:00:50;10.32;;;5.53;;
10092;SDS011;5085;48.092;11.484;2023-02-15T01:03:17;12.30;;;5.97;;
10092;SDS011;5085;48.092;11.484;2023-02-15T01:05:44;10.82;;;5.93;;
10092;SDS011;5085;48.092;11.484;2023-02-15T01:08:12;11.65;;;5.32;;
10092;SDS011;5085;48.092;11.484;2023-02-15T01:10:38;9.00;;;5.18;;
10092;SDS011;5085;48.092;11.484;2023-02-15T01:13:04;10.80;;;5.50;;
10092;SDS011;5085;48.092;11.484;2023-02-15T01:15:36;8.98;;;5.40;;
10092;SDS011;5085;48.092;11.484;2023-02-15T01:18:02;12.10;;;6.85;;
10092;SDS011;5085;48.092;11.484;2023-02-15T01:20:28;12.80;;;6.30;;
10092;SDS011;5085;48.092;11.484;2023-02-15T01:22:57;10.88;;;5.15;;
10092;SDS011;5085;48.092;11.484;2023-02-15T01:25:24;14.05;;;7.07;;
10092;SDS011;5085;48.092;11.484;2023-02-15T01:27:50;12.75;;;6.65;;
10092;SDS011;5085;48.092;11.484;2023-02-15T01:30:16;10.55;;;5.78;;
10092;SDS011;5085;48.092;11.484;2023-02-15T01:32:42;13.98;;;5.75;;
10092;SDS011;5085;48.092;11.484;2023-02-15T01:35:08;14.45;;;5.57;;
10092;SDS011;5085;48.092;11.484;2023-02-15T01:37:35;10.10;;;5.97;;
10092;SDS011;5085;48.092;11.484;2023-02-15T01:40:02;10.27;;;5.10;;
10092;SDS011;5085;48.092;11.484;2023-02-15T01:42:29;8.05;;;4.72;;
10092;SDS011;5085;48.092;11.484;2023-02-15T01:45:05;7.22;;;5.07;;
10092;SDS011;5085;48.092;11.484;2023-02-15T01:48:03;7.78;;;4.85;;
10092;SDS011;5085;48.092;11.484;2023-02-15T01:50:35;7.70;;;4.60;;
10092;SDS011;5085;48.092;11.484;2023-02-15T01:53:21;12.77;;;4.97;;
10092;SDS011;5085;48.092;11.484;2023-02-15T01:56:03;10.48;;;4.95;;
10092;SDS011;5085;48.092;11.484;2023-02-15T01:58:34;11.32;;;5.28;;
10092;SDS011;5085;48.092;11.484;2023-02-15T02:01:01;8.43;;;5.15;;
10092;SDS011;5085;48.092;11.484;2023-02-15T02:03:36;8.82;;;4.68;;
10092;SDS011;5085;48.092;11.484;2023-02-15T02:08:39;10.27;;;4.93;;
10092;SDS011;5085;48.092;11.484;2023-02-15T02:11:12;10.55;;;5.20;;
10092;SDS011;5085;48.092;11.484;2023-02-15T02:13:40;10.02;;;4.85;;
10092;SDS011;5085;48.092;11.484;2023-02-15T02:19:13;8.68;;;4.20;;
10092;SDS011;5085;48.092;11.484;2023-02-15T02:25:02;9.27;;;4.75;;
10092;SDS011;5085;48.092;11.484;2023-02-15T02:27:39;22.27;;;4.63;;
10092;SDS011;5085;48.092;11.484;2023-02-15T02:38:51;9.13;;;4.95;;
10092;SDS011;5085;48.092;11.484;2023-02-15T02:44:12;10.02;;;5.63;;
10092;SDS011;5085;48.092;11.484;2023-02-15T02:46:59;7.50;;;4.97;;
10092;SDS011;5085;48.092;11.484;2023-02-15T02:49:40;9.02;;;5.10;;
10092;SDS011;5085;48.092;11.484;2023-02-15T02:52:34;8.70;;;4.25;;
10092;SDS011;5085;48.092;11.484;2023-02-15T02:55:03;7.18;;;4.68;;
10092;SDS011;5085;48.092;11.484;2023-02-15T03:00:24;6.70;;;4.53;;
10092;SDS011;5085;48.092;11.484;2023-02-15T03:02:54;7.82;;;4.93;;
10092;SDS011;5085;48.092;11.484;2023-02-15T03:05:30;8.10;;;4.68;;
10092;SDS011;5085;48.092;11.484;2023-02-15T03:07:59;11.82;;;4.35;;
10092;SDS011;5085;48.092;11.484;2023-02-15T03:10:31;7.30;;;4.45;;
10092;SDS011;5085;48.092;11.484;2023-02-15T03:13:00;8.48;;;4.40;;
10092;SDS011;5085;48.092;11.484;2023-02-15T03:15:28;6.60;;;4.47;;
10092;SDS011;5085;48.092;11.484;2023-02-15T03:18:18;10.05;;;5.30;;
10092;SDS011;5085;48.092;11.484;2023-02-15T03:20:48;8.07;;;4.38;;
10092;SDS011;5085;48.092;11.484;2023-02-15T03:23:20;10.02;;;5.38;;
10092;SDS011;5085;48.092;11.484;2023-02-15T03:25:50;10.10;;;5.25;;
10092;SDS011;5085;48.092;11.484;2023-02-15T03:28:42;10.90;;;5.22;;
10092;SDS011;5085;48.092;11.484;2023-02-15T03:31:11;12.18;;;4.93;;
10092;SDS011;5085;48.092;11.484;2023-02-15T03:33:41;7.45;;;4.72;;
10092;SDS011;5085;48.092;11.484;2023-02-15T03:36:21;11.73;;;4.88;;
10092;SDS011;5085;48.092;11.484;2023-02-15T03:38:59;9.93;;;4.57;;
10092;SDS011;5085;48.092;11.484;2023-02-15T03:41:40;10.02;;;5.60;;
10092;SDS011;5085;48.092;11.484;2023-02-15T03:46:58;10.27;;;6.07;;
10092;SDS011;5085;48.092;11.484;2023-02-15T03:52:28;7.50;;;4.20;;
10092;SDS011;5085;48.092;11.484;2023-02-15T03:54:55;8.57;;;5.07;;
10092;SDS011;5085;48.092;11.484;2023-02-15T03:57:23;12.07;;;5.53;;
10092;SDS011;5085;48.092;11.484;2023-02-15T04:00:16;7.13;;;4.53;;
10092;SDS011;5085;48.092;11.484;2023-02-15T04:05:41;10.82;;;4.93;;
10092;SDS011;5085;48.092;11.484;2023-02-15T04:08:09;15.88;;;5.00;;
10092;SDS011;5085;48.092;11.484;2023-02-15T04:10:37;10.00;;;5.80;;
10092;SDS011;5085;48.092;11.484;2023-02-15T04:13:19;12.43;;;4.80;;
10092;SDS011;5085;48.092;11.484;2023-02-15T04:15:46;10.18;;;4.57;;
10092;SDS011;5085;48.092;11.484;2023-02-15T04:18:40;8.48;;;5.15;;
10092;SDS011;5085;48.092;11.484;2023-02-15T04:21:27;9.52;;;4.60;;
10092;SDS011;5085;48.092;11.484;2023-02-15T04:24:14;7.90;;;4.50;;
10092;SDS011;5085;48.092;11.484;2023-02-15T04:26:59;9.98;;;5.07;;
10092;SDS011;5085;48.092;11.484;2023-02-15T04:29:26;8.27;;;4.80;;
10092;SDS011;5085;48.092;11.484;2023-02-15T04:31:54;10.70;;;5.63;;
10092;SDS011;5085;48.092;11.484;2023-02-15T04:34:22;10.07;;;5.93;;
10092;SDS011;5085;48.092;11.484;2023-02-15T04:36:48;9.10;;;5.53;;
10092;SDS011;5085;48.092;11.484;2023-02-15T04:39:16;10.40;;;5.50;;
10092;SDS011;5085;48.092;11.484;2023-02-15T04:41:43;11.18;;;5.00;;
10092;SDS011;5085;48.092;11.484;2023-02-15T04:44:10;6.60;;;4.70;;
10092;SDS011;5085;48.092;11.484;2023-02-15T04:46:36;10.40;;;5.05;;
10092;SDS011;5085;48.092;11.484;2023-02-15T04:49:02;17.50;;;5.55;;
10092;SDS011;5085;48.092;11.484;2023-02-15T04:51:28;11.43;;;4.82;;
10092;SDS011;5085;48.092;11.484;2023-02-15T04:53:54;8.88;;;4.88;;
10092;SDS011;5085;48.092;11.484;2023-02-15T04:56:22;12.10;;;5.57;;
10092;SDS011;5085;48.092;11.484;2023-02-15T04:58:48;10.27;;;5.90;;
10092;SDS011;5085;48.092;11.484;2023-02-15T05:01:14;10.48;;;4.95;;
10092;SDS011;5085;48.092;11.484;2023-02-15T05:03:40;13.30;;;5.05;;
10092;SDS011;5085;48.092;11.484;2023-02-15T05:06:06;10.00;;;5.43;;
10092;SDS011;5085;48.092;11.484;2023-02-15T05:08:33;10.40;;;5.45;;
10092;SDS011;5085;48.092;11.484;2023-02-15T05:10:59;11.52;;;6.25;;
10092;SDS011;5085;48.092;11.484;2023-02-15T05:13:25;9.10;;;5.68;;
10092;SDS011;5085;48.092;11.484;2023-02-15T05:15:51;8.15;;;5.57;;
10092;SDS011;5085;48.092;11.484;2023-02-15T05:18:18;10.38;;;5.20;;
10092;SDS011;5085;48.092;11.484;2023-02-15T05:20:46;11.80;;;6.07;;
10092;SDS011;5085;48.092;11.484;2023-02-15T05:23:12;14.75;;;6.07;;
10092;SDS011;5085;48.092;11.484;2023-02-15T05:25:38;11.05;;;5.45;;
10092;SDS011;5085;48.092;11.484;2023-02-15T05:28:23;7.13;;;4.07;;
10092;SDS011;5085;48.092;11.484;2023-02-15T05:31:00;8.57;;;5.13;;
10092;SDS011;5085;48.092;11.484;2023-02-15T05:33:30;8.75;;;5.35;;
10092;SDS011;5085;48.092;11.484;2023-02-15T05:35:57;13.57;;;6.60;;
10092;SDS011;5085;48.092;11.484;2023-02-15T05:38:23;11.13;;;4.88;;
10092;SDS011;5085;48.092;11.484;2023-02-15T05:40:52;9.02;;;5.68;;
10092;SDS011;5085;48.092;11.484;2023-02-15T05:43:19;13.32;;;5.30;;
10092;SDS011;5085;48.092;11.484;2023-02-15T05:45:46;11.35;;;5.60;;
10092;SDS011;5085;48.092;11.484;2023-02-15T05:48:12;9.90;;;5.88;;
10092;SDS011;5085;48.092;11.484;2023-02-15T05:50:38;10.07;;;5.72;;
10092;SDS011;5085;48.092;11.484;2023-02-15T05:53:04;11.68;;;5.40;;
10092;SDS011;5085;48.092;11.484;2023-02-15T05:55:30;9.55;;;5.93;;
10092;SDS011;5085;48.092;11.484;2023-02-15T05:57:57;11.77;;;5.43;;
10092;SDS011;5085;48.092;11.484;2023-02-15T06:00:23;12.32;;;6.80;;
10092;SDS011;5085;48.092;11.484;2023-02-15T06:02:50;10.98;;;6.00;;
10092;SDS011;5085;48.092;11.484;2023-02-15T06:05:16;11.73;;;5.80;;
10092;SDS011;5085;48.092;11.484;2023-02-15T06:07:43;7.97;;;5.05;;
10092;SDS011;5085;48.092;11.484;2023-02-15T06:10:10;10.68;;;4.97;;
10092;SDS011;5085;48.092;11.484;2023-02-15T06:12:36;7.72;;;4.70;;
10092;SDS011;5085;48.092;11.484;2023-02-15T06:15:03;7.82;;;4.43;;
10092;SDS011;5085;48.092;11.484;2023-02-15T06:17:29;10.07;;;5.13;;
10092;SDS011;5085;48.092;11.484;2023-02-15T06:19:55;8.95;;;5.03;;
10092;SDS011;5085;48.092;11.484;2023-02-15T06:22:21;11.68;;;6.07;;
10092;SDS011;5085;48.092;11.484;2023-02-15T06:24:48;7.70;;;4.90;;
10092;SDS011;5085;48.092;11.484;2023-02-15T06:27:14;6.82;;;3.90;;
10092;SDS011;5085;48.092;11.484;2023-02-15T06:29:40;16.05;;;5.57;;
10092;SDS011;5085;48.092;11.484;2023-02-15T06:32:06;10.90;;;5.82;;
10092;SDS011;5085;48.092;11.484;2023-02-15T06:34:32;8.05;;;5.22;;
10092;SDS011;5085;48.092;11.484;2023-02-15T06:36:58;8.70;;;4.80;;
10092;SDS011;5085;48.092;11.484;2023-02-15T06:39:24;9.48;;;4.85;;
10092;SDS011;5085;48.092;11.484;2023-02-15T06:41:51;8.35;;;4.80;;
10092;SDS011;5085;48.092;11.484;2023-02-15T06:44:17;7.38;;;4.60;;
10092;SDS011;5085;48.092;11.484;2023-02-15T06:46:43;10.63;;;5.72;;
10092;SDS011;5085;48.092;11.484;2023-02-15T06:49:09;11.93;;;6.25;;
10092;SDS011;5085;48.092;11.484;2023-02-15T06:51:35;10.40;;;5.75;;
10092;SDS011;5085;48.092;11.484;2023-02-15T06:54:01;10.80;;;6.25;;
10092;SDS011;5085;48.092;11.484;2023-02-15T06:56:27;11.10;;;5.40;;
10092;SDS011;5085;48.092;11.484;2023-02-15T06:58:53;9.48;;;5.53;;
10092;SDS011;5085;48.092;11.484;2023-02-15T07:01:20;10.52;;;6.07;;
10092;SDS011;5085;48.092;11.484;2023-02-15T07:03:46;7.82;;;5.05;;
10092;SDS011;5085;48.092;11.484;2023-02-15T07:06:12;9.38;;;5.13;;
10092;SDS011;5085;48.092;11.484;2023-02-15T07:08:38;13.27;;;6.38;;
10092;SDS011;5085;48.092;11.484;2023-02-15T07:11:05;12.60;;;6.03;;
10092;SDS011;5085;48.092;11.484;2023-02-15T07:13:50;10.68;;;6.18;;
10092;SDS011;5085;48.092;11.484;2023-02-15T07:16:18;10.25;;;5.60;;
10092;SDS011;5085;48.092;11.484;2023-02-15T07:18:44;8.55;;;4.97;;
10092;SDS011;5085;48.092;11.484;2023-02-15T07:21:10;10.02;;;4.95;;
10092;SDS011;5085;48.092;11.484;2023-02-15T07:23:37;8.60;;;5.00;;
10092;SDS011;5085;48.092;11.484;2023-02-15T07:26:04;9.65;;;5.28;;
10092;SDS011;5085;48.092;11.484;2023-02-15T07:28:31;10.32;;;5.47;;
10092;SDS011;5085;48.092;11.484;2023-02-15T07:30:58;9.43;;;5.20;;
10092;SDS011;5085;48.092;11.484;2023-02-15T07:33:26;12.45;;;6.97;;
10092;SDS011;5085;48.092;11.484;2023-02-15T07:35:53;10.45;;;5.75;;
10092;SDS011;5085;48.092;11.484;2023-02-15T07:38:23;12.23;;;6.53;;
10092;SDS011;5085;48.092;11.484;2023-02-15T07:40:50;11.73;;;6.85;;
10092;SDS011;5085;48.092;11.484;2023-02-15T07:43:16;10.93;;;5.05;;
10092;SDS011;5085;48.092;11.484;2023-02-15T07:45:42;9.80;;;5.60;;
10092;SDS011;5085;48.092;11.484;2023-02-15T07:48:09;10.40;;;6.03;;
10092;SDS011;5085;48.092;11.484;2023-02-15T07:50:35;10.75;;;5.68;;
10092;SDS011;5085;48.092;11.484;2023-02-15T07:53:01;11.32;;;6.57;;
10092;SDS011;5085;48.092;11.484;2023-02-15T07:55:28;11.07;;;6.55;;
10092;SDS011;5085;48.092;11.484;2023-02-15T07:57:54;10.85;;;6.60;;
10092;SDS011;5085;48.092;11.484;2023-02-15T08:00:20;9.45;;;6.53;;
10092;SDS011;5085;48.092;11.484;2023-02-15T08:02:50;11.07;;;5.63;;
10092;SDS011;5085;48.092;11.484;2023-02-15T08:05:42;11.40;;;6.53;;
10092;SDS011;5085;48.092;11.484;2023-02-15T08:10:58;12.52;;;5.35;;
10092;SDS011;5085;48.092;11.484;2023-02-15T08:13:45;9.70;;;6.18;;
10092;SDS011;5085;48.092;11.484;2023-02-15T08:16:24;13.55;;;6.20;;
10092;SDS011;5085;48.092;11.484;2023-02-15T08:18:52;12.15;;;6.80;;
10092;SDS011;5085;48.092;11.484;2023-02-15T08:21:19;14.07;;;6.75;;
10092;SDS011;5085;48.092;11.484;2023-02-15T08:23:46;13.77;;;7.22;;
10092;SDS011;5085;48.092;11.484;2023-02-15T08:26:13;12.88;;;6.82;;
10092;SDS011;5085;48.092;11.484;2023-02-15T08:28:40;11.20;;;7.05;;
10092;SDS011;5085;48.092;11.484;2023-02-15T08:31:07;15.00;;;7.18;;
10092;SDS011;5085;48.092;11.484;2023-02-15T08:33:35;18.75;;;7.78;;
10092;SDS011;5085;48.092;11.484;2023-02-15T08:36:03;13.73;;;7.80;;
10092;SDS011;5085;48.092;11.484;2023-02-15T08:38:30;17.02;;;7.65;;
10092;SDS011;5085;48.092;11.484;2023-02-15T08:40:56;12.93;;;7.82;;
10092;SDS011;5085;48.092;11.484;2023-02-15T08:43:22;14.07;;;7.72;;
10092;SDS011;5085;48.092;11.484;2023-02-15T08:45:48;12.25;;;8.25;;
10092;SDS011;5085;48.092;11.484;2023-02-15T08:48:14;13.57;;;7.45;;
10092;SDS011;5085;48.092;11.484;2023-02-15T08:50:40;13.68;;;7.40;;
10092;SDS011;5085;48.092;11.484;2023-02-15T08:53:06;14.57;;;8.27;;
10092;SDS011;5085;48.092;11.484;2023-02-15T08:55:32;16.33;;;8.48;;
10092;SDS011;5085;48.092;11.484;2023-02-15T08:57:58;13.35;;;7.50;;
10092;SDS011;5085;48.092;11.484;2023-02-15T09:00:24;12.80;;;7.68;;
10092;SDS011;5085;48.092;11.484;2023-02-15T09:02:50;16.67;;;8.65;;
10092;SDS011;5085;48.092;11.484;2023-02-15T09:05:17;12.50;;;8.15;;
10092;SDS011;5085;48.092;11.484;2023-02-15T09:07:43;14.95;;;8.77;;
10092;SDS011;5085;48.092;11.484;2023-02-15T09:10:10;13.68;;;8.63;;
10092;SDS011;5085;48.092;11.484;2023-02-15T09:12:36;13.25;;;8.35;;
10092;SDS011;5085;48.092;11.484;2023-02-15T09:15:02;16.27;;;9.02;;
10092;SDS011;5085;48.092;11.484;2023-02-15T09:17:28;13.05;;;8.32;;
10092;SDS011;5085;48.092;11.484;2023-02-15T09:19:54;12.38;;;7.88;;
10092;SDS011;5085;48.092;11.484;2023-02-15T09:22:20;19.27;;;9.00;;
10092;SDS011;5085;48.092;11.484;2023-02-15T09:24:46;16.23;;;8.98;;
10092;SDS011;5085;48.092;11.484;2023-02-15T09:27:12;15.48;;;8.60;;
10092;SDS011;5085;48.092;11.484;2023-02-15T09:29:38;13.93;;;8.68;;
10092;SDS011;5085;48.092;11.484;2023-02-15T09:32:04;13.95;;;8.02;;
10092;SDS011;5085;48.092;11.484;2023-02-15T09:34:30;14.73;;;7.93;;
10092;SDS011;5085;48.092;11.484;2023-02-15T09:36:56;13.82;;;9.20;;
10092;SDS011;5085;48.092;11.484;2023-02-15T09:39:24;13.20;;;8.25;;
10092;SDS011;5085;48.092;11.484;2023-02-15T09:50:36;14.57;;;8.43;;
10092;SDS011;5085;48.092;11.484;2023-02-15T10:04:42;13.30;;;8.35;;
10092;SDS011;5085;48.092;11.484;2023-02-15T10:07:33;12.25;;;7.82;;
10092;SDS011;5085;48.092;11.484;2023-02-15T10:13:47;14.57;;;8.27;;
10092;SDS011;5085;48.092;11.484;2023-02-15T10:15:56;11.90;;;7.90;;
10092;SDS011;5085;48.092;11.484;2023-02-15T10:21:11;12.48;;;8.75;;
10092;SDS011;5085;48.092;11.484;2023-02-15T10:26:56;17.23;;;8.43;;
10092;SDS011;5085;48.092;11.484;2023-02-15T10:29:35;17.10;;;8.52;;
10092;SDS011;5085;48.092;11.484;2023-02-15T10:50:56;14.43;;;8.30;;
10092;SDS011;5085;48.092;11.484;2023-02-15T10:53:28;11.93;;;8.23;;
10092;SDS011;5085;48.092;11.484;2023-02-15T10:56:04;12.48;;;7.53;;
10092;SDS011;5085;48.092;11.484;2023-02-15T11:04:05;11.48;;;7.88;;
10092;SDS011;5085;48.092;11.484;2023-02-15T11:06:53;13.95;;;8.60;;
10092;SDS011;5085;48.092;11.484;2023-02-15T11:09:23;13.77;;;7.97;;
10092;SDS011;5085;48.092;11.484;2023-02-15T11:11:55;11.13;;;8.27;;
10092;SDS011;5085;48.092;11.484;2023-02-15T11:14:36;13.85;;;8.35;;
10092;SDS011;5085;48.092;11.484;2023-02-15T11:17:18;10.25;;;7.32;;
10092;SDS011;5085;48.092;11.484;2023-02-15T11:22:36;13.38;;;8.55;;
10092;SDS011;5085;48.092;11.484;2023-02-15T11:25:05;11.63;;;8.32;;
10092;SDS011;5085;48.092;11.484;2023-02-15T11:27:44;13.40;;;8.88;;
10092;SDS011;5085;48.092;11.484;2023-02-15T11:30:14;14.95;;;9.15;;
10092;SDS011;5085;48.092;11.484;2023-02-15T11:32:49;12.95;;;8.57;;
10092;SDS011;5085;48.092;11.484;2023-02-15T11:35:20;11.05;;;8.20;;
10092;SDS011;5085;48.092;11.484;2023-02-15T11:40:33;11.38;;;7.82;;
10092;SDS011;5085;48.092;11.484;2023-02-15T11:43:04;12.38;;;8.25;;
10092;SDS011;5085;48.092;11.484;2023-02-15T11:45:36;14.48;;;8.82;;
10092;SDS011;5085;48.092;11.484;2023-02-15T11:48:09;11.82;;;8.80;;
10092;SDS011;5085;48.092;11.484;2023-02-15T11:50:37;13.00;;;8.45;;
10092;SDS011;5085;48.092;11.484;2023-02-15T11:53:04;10.68;;;7.85;;
10092;SDS011;5085;48.092;11.484;2023-02-15T11:55:37;12.63;;;9.02;;
10092;SDS011;5085;48.092;11.484;2023-02-15T11:58:04;21.60;;;8.80;;
10092;SDS011;5085;48.092;11.484;2023-02-15T12:00:42;13.40;;;9.20;;
10092;SDS011;5085;48.092;11.484;2023-02-15T12:05:47;14.82;;;8.95;;
10092;SDS011;5085;48.092;11.484;2023-02-15T12:08:21;14.57;;;9.38;;
10092;SDS011;5085;48.092;11.484;2023-02-15T12:13:22;14.10;;;8.98;;
10092;SDS011;5085;48.092;11.484;2023-02-15T12:15:53;11.32;;;8.77;;
10092;SDS011;5085;48.092;11.484;2023-02-15T12:21:11;14.75;;;8.85;;
10092;SDS011;5085;48.092;11.484;2023-02-15T12:23:50;12.98;;;8.48;;
10092;SDS011;5085;48.092;11.484;2023-02-15T12:26:27;12.43;;;8.95;;
10092;SDS011;5085;48.092;11.484;2023-02-15T12:28:57;13.10;;;8.85;;
10092;SDS011;5085;48.092;11.484;2023-02-15T12:31:30;13.63;;;8.02;;
10092;SDS011;5085;48.092;11.484;2023-02-15T12:34:00;13.45;;;9.10;;
10092;SDS011;5085;48.092;11.484;2023-02-15T12:36:41;16.40;;;9.52;;
10092;SDS011;5085;48.092;11.484;2023-02-15T12:41:43;14.82;;;9.15;;
10092;SDS011;5085;48.092;11.484;2023-02-15T12:44:22;15.45;;;9.02;;
10092;SDS011;5085;48.092;11.484;2023-02-15T12:49:33;17.48;;;9.27;;
10092;SDS011;5085;48.092;11.484;2023-02-15T12:52:02;13.88;;;9.75;;
10092;SDS011;5085;48.092;11.484;2023-02-15T12:54:39;17.33;;;10.05;;
10092;SDS011;5085;48.092;11.484;2023-02-15T12:59:47;17.33;;;10.07;;
10092;SDS011;5085;48.092;11.484;2023-02-15T13:02:23;12.55;;;9.45;;
10092;SDS011;5085;48.092;11.484;2023-02-15T13:04:52;11.27;;;8.20;;
10092;SDS011;5085;48.092;11.484;2023-02-15T13:07:19;13.13;;;8.65;;
10092;SDS011;5085;48.092;11.484;2023-02-15T13:09:46;19.38;;;8.77;;
10092;SDS011;5085;48.092;11.484;2023-02-15T13:12:23;16.13;;;9.43;;
10092;SDS011;5085;48.092;11.484;2023-02-15T13:14:56;17.67;;;9.65;;
10092;SDS011;5085;48.092;11.484;2023-02-15T13:17:27;16.95;;;10.18;;
10092;SDS011;5085;48.092;11.484;2023-02-15T13:20:18;16.95;;;9.95;;
10092;SDS011;5085;48.092;11.484;2023-02-15T13:22:46;12.32;;;9.88;;
10092;SDS011;5085;48.092;11.484;2023-02-15T13:25:17;23.30;;;10.27;;
10092;SDS011;5085;48.092;11.484;2023-02-15T13:27:48;14.38;;;9.90;;
10092;SDS011;5085;48.092;11.484;2023-02-15T13:30:28;13.75;;;9.88;;
10092;SDS011;5085;48.092;11.484;2023-02-15T13:33:21;16.67;;;10.57;;
10092;SDS011;5085;48.092;11.484;2023-02-15T13:38:45;14.80;;;10.07;;
10092;SDS011;5085;48.092;11.484;2023-02-15T13:41:13;19.92;;;11.57;;
10092;SDS011;5085;48.092;11.484;2023-02-15T13:52:23;18.25;;;11.60;;
10092;SDS011;5085;48.092;11.484;2023-02-15T14:01:09;16.23;;;12.27;;
10092;SDS011;5085;48.092;11.484;2023-02-15T14:03:40;19.25;;;11.52;;
10092;SDS011;5085;48.092;11.484;2023-02-15T14:06:29;19.50;;;12.00;;
10092;SDS011;5085;48.092;11.484;2023-02-15T14:09:24;24.00;;;12.18;;
10092;SDS011;5085;48.092;11.484;2023-02-15T14:17:40;17.40;;;11.88;;
10092;SDS011;5085;48.092;11.484;2023-02-15T14:20:22;17.95;;;11.48;;
10092;SDS011;5085;48.092;11.484;2023-02-15T14:25:45;17.10;;;11.65;;
10092;SDS011;5085;48.092;11.484;2023-02-15T14:28:22;25.27;;;12.15;;
10092;SDS011;5085;48.092;11.484;2023-02-15T14:30:56;17.30;;;10.65;;
10092;SDS011;5085;48.092;11.484;2023-02-15T14:33:33;20.20;;;10.93;;
10092;SDS011;5085;48.092;11.484;2023-02-15T14:36:09;17.98;;;10.93;;
10092;SDS011;5085;48.092;11.484;2023-02-15T14:44:01;19.23;;;11.05;;
10092;SDS011;5085;48.092;11.484;2023-02-15T14:46:55;18.05;;;10.32;;
10092;SDS011;5085;48.092;11.484;2023-02-15T14:49:32;20.40;;;10.73;;
10092;SDS011;5085;48.092;11.484;2023-02-15T14:52:02;21.85;;;10.32;;
10092;SDS011;5085;48.092;11.484;2023-02-15T15:02:03;15.13;;;10.23;;
10092;SDS011;5085;48.092;11.484;2023-02-15T15:04:43;20.85;;;10.23;;
10092;SDS011;5085;48.092;11.484;2023-02-15T15:09:58;17.35;;;9.52;;
10092;SDS011;5085;48.092;11.484;2023-02-15T15:15:14;20.42;;;9.70;;
10092;SDS011;5085;48.092;11.484;2023-02-15T15:18:09;20.55;;;9.75;;
10092;SDS011;5085;48.092;11.484;2023-02-15T15:20:55;17.60;;;8.85;;
10092;SDS011;5085;48.092;11.484;2023-02-15T15:25:51;18.83;;;9.50;;
10092;SDS011;5085;48.092;11.484;2023-02-15T15:43:19;16.55;;;9.32;;
10092;SDS011;5085;48.092;11.484;2023-02-15T15:49:02;24.05;;;10.15;;
10092;SDS011;5085;48.092;11.484;2023-02-15T15:51:35;19.20;;;9.43;;
10092;SDS011;5085;48.092;11.484;2023-02-15T15:54:06;18.63;;;10.38;;
10092;SDS011;5085;48.092;11.484;2023-02-15T15:56:38;21.65;;;10.02;;
10092;SDS011;5085;48.092;11.484;2023-02-15T15:59:05;19.23;;;9.75;;
10092;SDS011;5085;48.092;11.484;2023-02-15T16:01:44;20.71;;;9.88;;
10092;SDS011;5085;48.092;11.484;2023-02-15T16:04:12;15.57;;;9.52;;
10092;SDS011;5085;48.092;11.484;2023-02-15T16:06:40;22.15;;;9.77;;
10092;SDS011;5085;48.092;11.484;2023-02-15T16:09:15;16.77;;;9.63;;
10092;SDS011;5085;48.092;11.484;2023-02-15T16:11:48;21.02;;;9.93;;
10092;SDS011;5085;48.092;11.484;2023-02-15T16:14:35;15.38;;;8.50;;
10092;SDS011;5085;48.092;11.484;2023-02-15T16:17:04;17.75;;;9.45;;
10092;SDS011;5085;48.092;11.484;2023-02-15T16:19:40;15.13;;;9.18;;
10092;SDS011;5085;48.092;11.484;2023-02-15T16:22:10;17.52;;;9.32;;
10092;SDS011;5085;48.092;11.484;2023-02-15T16:27:33;18.60;;;8.48;;
10092;SDS011;5085;48.092;11.484;2023-02-15T16:32:55;17.75;;;9.55;;
10092;SDS011;5085;48.092;11.484;2023-02-15T16:35:30;17.13;;;8.38;;
10092;SDS011;5085;48.092;11.484;2023-02-15T16:37:56;16.95;;;8.50;;
10092;SDS011;5085;48.092;11.484;2023-02-15T16:43:24;19.33;;;9.35;;
10092;SDS011;5085;48.092;11.484;2023-02-15T16:45:52;19.45;;;8.77;;
10092;SDS011;5085;48.092;11.484;2023-02-15T16:48:33;27.58;;;9.95;;
10092;SDS011;5085;48.092;11.484;2023-02-15T16:51:03;18.10;;;9.25;;
10092;SDS011;5085;48.092;11.484;2023-02-15T16:53:30;19.70;;;8.90;;
10092;SDS011;5085;48.092;11.484;2023-02-15T16:56:04;20.42;;;10.30;;
10092;SDS011;5085;48.092;11.484;2023-02-15T16:59:23;19.60;;;8.65;;
10092;SDS011;5085;48.092;11.484;2023-02-15T17:01:58;18.23;;;9.02;;
10092;SDS011;5085;48.092;11.484;2023-02-15T17:04:27;17.75;;;10.05;;
10092;SDS011;5085;48.092;11.484;2023-02-15T17:07:06;18.08;;;9.88;;
10092;SDS011;5085;48.092;11.484;2023-02-15T17:09:56;16.70;;;9.70;;
10092;SDS011;5085;48.092;11.484;2023-02-15T17:15:25;18.17;;;10.20;;
10092;SDS011;5085;48.092;11.484;2023-02-15T17:17:51;17.88;;;9.88;;
10092;SDS011;5085;48.092;11.484;2023-02-15T17:20:18;22.52;;;9.95;;
10092;SDS011;5085;48.092;11.484;2023-02-15T17:22:46;18.98;;;9.32;;
10092;SDS011;5085;48.092;11.484;2023-02-15T17:25:21;19.40;;;9.93;;
10092;SDS011;5085;48.092;11.484;2023-02-15T17:27:52;16.92;;;8.27;;
10092;SDS011;5085;48.092;11.484;2023-02-15T17:30:28;20.58;;;10.35;;
10092;SDS011;5085;48.092;11.484;2023-02-15T17:32:58;23.17;;;9.57;;
10092;SDS011;5085;48.092;11.484;2023-02-15T17:35:28;20.27;;;10.65;;
10092;SDS011;5085;48.092;11.484;2023-02-15T17:40:40;19.05;;;9.27;;
10092;SDS011;5085;48.092;11.484;2023-02-15T17:43:06;19.35;;;9.48;;
10092;SDS011;5085;48.092;11.484;2023-02-15T17:45:33;17.60;;;9.05;;
10092;SDS011;5085;48.092;11.484;2023-02-15T17:48:03;19.80;;;10.03;;
10092;SDS011;5085;48.092;11.484;2023-02-15T17:50:30;20.73;;;9.55;;
10092;SDS011;5085;48.092;11.484;2023-02-15T17:52:58;19.20;;;10.10;;
10092;SDS011;5085;48.092;11.484;2023-02-15T17:55:26;23.73;;;10.60;;
10092;SDS011;5085;48.092;11.484;2023-02-15T17:58:07;16.80;;;8.65;;
10092;SDS011;5085;48.092;11.484;2023-02-15T18:00:39;21.63;;;9.73;;
10092;SDS011;5085;48.092;11.484;2023-02-15T18:03:49;17.17;;;9.45;;
10092;SDS011;5085;48.092;11.484;2023-02-15T18:06:34;17.60;;;8.35;;
10092;SDS011;5085;48.092;11.484;2023-02-15T18:09:21;16.17;;;9.10;;